CSN7701 RJSS-VHHX
Flight info
| Callsign | CSN7701 |
|---|---|
| Flight time | N/A |
| Altitude | 34000 |
| Route | RIKYU Y882 GYODA Y88 NAKTU Y12 KEC A1 RUSAR/N0462F360 A1 MAGOG |
| Aircraft | A320/M-SDE3FGHIRWY/LB1 |
Departure
| Time | 2026-05-07 17:21 |
|---|---|
| Airport | Sendai Airport (RJSS) |
Arrival
| Time | N/A |
|---|---|
| Airport | Hong Kong International Airport Kai Tak (VHHX) |
| Time | Latitude | Longitude | Altitude | Speed | Heading |
|---|---|---|---|---|---|
| 2026-05-07 17:21 | 37.93579 | 140.99647 | 9278 ft | 281 kts | 184° |
| 2026-05-07 17:21 | 37.91619 | 140.99608 | 9968 ft | 283 kts | 184° |
| 2026-05-07 17:21 | 37.89610 | 140.99566 | 10309 ft | 299 kts | 184° |
| 2026-05-07 17:21 | 37.87459 | 140.99519 | 10433 ft | 320 kts | 184° |
| 2026-05-07 17:22 | 37.85164 | 140.99470 | 10565 ft | 340 kts | 183° |
| 2026-05-07 17:22 | 37.82756 | 140.99421 | 10893 ft | 351 kts | 183° |
| 2026-05-07 17:22 | 37.80301 | 140.99375 | 11433 ft | 355 kts | 183° |
| 2026-05-07 17:22 | 37.77824 | 140.99262 | 12005 ft | 357 kts | 190° |
| 2026-05-07 17:23 | 37.75400 | 140.98463 | 12575 ft | 356 kts | 205° |
| 2026-05-07 17:23 | 37.73273 | 140.96895 | 13143 ft | 355 kts | 220° |
| 2026-05-07 17:23 | 37.71550 | 140.94668 | 13723 ft | 356 kts | 234° |
| 2026-05-07 17:23 | 37.70349 | 140.91935 | 14225 ft | 358 kts | 248° |
| 2026-05-07 17:24 | 37.69440 | 140.89010 | 14767 ft | 359 kts | 248° |
| 2026-05-07 17:24 | 37.68523 | 140.86065 | 15265 ft | 362 kts | 248° |
| 2026-05-07 17:24 | 37.67594 | 140.83101 | 15787 ft | 363 kts | 248° |
| 2026-05-07 17:24 | 37.66658 | 140.80129 | 16306 ft | 365 kts | 248° |
| 2026-05-07 17:25 | 37.65715 | 140.77142 | 16843 ft | 368 kts | 248° |
| 2026-05-07 17:25 | 37.64763 | 140.74134 | 17387 ft | 370 kts | 248° |
| 2026-05-07 17:25 | 37.63806 | 140.71113 | 17935 ft | 372 kts | 248° |
| 2026-05-07 17:25 | 37.62840 | 140.68069 | 18429 ft | 375 kts | 248° |
| 2026-05-07 17:26 | 37.61853 | 140.64965 | 18907 ft | 378 kts | 248° |
| 2026-05-07 17:26 | 37.60874 | 140.61881 | 19373 ft | 380 kts | 248° |
| 2026-05-07 17:26 | 37.59890 | 140.58777 | 19851 ft | 383 kts | 248° |
| 2026-05-07 17:26 | 37.58894 | 140.55653 | 20311 ft | 385 kts | 249° |
| 2026-05-07 17:27 | 37.57889 | 140.52513 | 20748 ft | 387 kts | 248° |
| 2026-05-07 17:27 | 37.56876 | 140.49353 | 21170 ft | 390 kts | 249° |
| 2026-05-07 17:27 | 37.55835 | 140.46190 | 21575 ft | 392 kts | 245° |
| 2026-05-07 17:27 | 37.54484 | 140.43183 | 21968 ft | 395 kts | 240° |
| 2026-05-07 17:28 | 37.53057 | 140.40217 | 22347 ft | 398 kts | 240° |
| 2026-05-07 17:28 | 37.51613 | 140.37232 | 22716 ft | 400 kts | 240° |
| 2026-05-07 17:28 | 37.50160 | 140.34237 | 23069 ft | 402 kts | 240° |
| 2026-05-07 17:28 | 37.48699 | 140.31220 | 23414 ft | 405 kts | 240° |
| 2026-05-07 17:29 | 37.47231 | 140.28183 | 23718 ft | 407 kts | 240° |
| 2026-05-07 17:29 | 37.45760 | 140.25136 | 24005 ft | 409 kts | 240° |
| 2026-05-07 17:29 | 37.44280 | 140.22073 | 24307 ft | 410 kts | 240° |
| 2026-05-07 17:29 | 37.42795 | 140.19005 | 24591 ft | 412 kts | 240° |
| 2026-05-07 17:30 | 37.41299 | 140.15923 | 24855 ft | 414 kts | 240° |
| 2026-05-07 17:30 | 37.39797 | 140.12828 | 25125 ft | 416 kts | 240° |
| 2026-05-07 17:30 | 37.38283 | 140.09716 | 25398 ft | 418 kts | 240° |
| 2026-05-07 17:30 | 37.36744 | 140.06559 | 25689 ft | 420 kts | 240° |
| 2026-05-07 17:31 | 37.35211 | 140.03417 | 25953 ft | 422 kts | 240° |
| 2026-05-07 17:31 | 37.33679 | 140.00276 | 26326 ft | 421 kts | 240° |
| 2026-05-07 17:31 | 37.32101 | 139.97182 | 26734 ft | 421 kts | 235° |
| 2026-05-07 17:31 | 37.30129 | 139.94465 | 27105 ft | 424 kts | 224° |
| 2026-05-07 17:32 | 37.27729 | 139.92280 | 27499 ft | 428 kts | 213° |
| 2026-05-07 17:32 | 37.25000 | 139.90748 | 27866 ft | 434 kts | 201° |
| 2026-05-07 17:32 | 37.22084 | 139.89718 | 28256 ft | 435 kts | 199° |
| 2026-05-07 17:32 | 37.20152 | 139.89054 | 28516 ft | 435 kts | 199° |
| 2026-05-07 17:33 | 37.16254 | 139.87710 | 29045 ft | 434 kts | 199° |
| 2026-05-07 17:33 | 37.13341 | 139.86703 | 29434 ft | 434 kts | 199° |
| 2026-05-07 17:33 | 37.10430 | 139.85693 | 29831 ft | 434 kts | 199° |
| 2026-05-07 17:33 | 37.07524 | 139.84684 | 30195 ft | 433 kts | 200° |
| 2026-05-07 17:34 | 37.05608 | 139.84019 | 30431 ft | 432 kts | 200° |
| 2026-05-07 17:34 | 37.02714 | 139.83017 | 30785 ft | 431 kts | 200° |
| 2026-05-07 17:34 | 36.98860 | 139.81683 | 31266 ft | 428 kts | 200° |
| 2026-05-07 17:34 | 36.96959 | 139.81025 | 31534 ft | 427 kts | 200° |
| 2026-05-07 17:35 | 36.93145 | 139.79705 | 32014 ft | 424 kts | 200° |
| 2026-05-07 17:35 | 36.91222 | 139.79041 | 32257 ft | 423 kts | 200° |
| 2026-05-07 17:35 | 36.88387 | 139.78063 | 32631 ft | 421 kts | 200° |
| 2026-05-07 17:35 | 36.85572 | 139.77091 | 33029 ft | 419 kts | 200° |
| 2026-05-07 17:36 | 36.82770 | 139.76127 | 33427 ft | 417 kts | 200° |
| 2026-05-07 17:36 | 36.79984 | 139.75172 | 33795 ft | 415 kts | 200° |
| 2026-05-07 17:36 | 36.74389 | 139.73252 | 33909 ft | 422 kts | 200° |